sensor_id;sensor_type;location;lat;lon;timestamp;P1;durP1;ratioP1;P2;durP2;ratioP2
28796;SDS011;24974;54.444;18.560;2022-07-03T00:02:13;9.00;;;5.65;;
28796;SDS011;24974;54.444;18.560;2022-07-03T00:04:44;8.45;;;6.57;;
28796;SDS011;24974;54.444;18.560;2022-07-03T00:07:14;8.07;;;6.40;;
28796;SDS011;24974;54.444;18.560;2022-07-03T00:09:45;7.40;;;5.95;;
28796;SDS011;24974;54.444;18.560;2022-07-03T00:12:17;10.18;;;6.10;;
28796;SDS011;24974;54.444;18.560;2022-07-03T00:14:48;9.77;;;6.25;;
28796;SDS011;24974;54.444;18.560;2022-07-03T00:17:21;11.18;;;6.40;;
28796;SDS011;24974;54.444;18.560;2022-07-03T00:19:52;11.95;;;7.18;;
28796;SDS011;24974;54.444;18.560;2022-07-03T00:22:25;8.25;;;6.38;;
28796;SDS011;24974;54.444;18.560;2022-07-03T00:25:05;10.82;;;6.95;;
28796;SDS011;24974;54.444;18.560;2022-07-03T00:27:38;12.52;;;6.72;;
28796;SDS011;24974;54.444;18.560;2022-07-03T00:30:10;15.25;;;5.95;;
28796;SDS011;24974;54.444;18.560;2022-07-03T00:32:41;7.13;;;6.05;;
28796;SDS011;24974;54.444;18.560;2022-07-03T00:35:16;9.23;;;6.25;;
28796;SDS011;24974;54.444;18.560;2022-07-03T00:37:48;11.35;;;6.13;;
28796;SDS011;24974;54.444;18.560;2022-07-03T00:40:19;7.20;;;5.38;;
28796;SDS011;24974;54.444;18.560;2022-07-03T00:42:50;9.38;;;5.78;;
28796;SDS011;24974;54.444;18.560;2022-07-03T00:45:21;10.07;;;5.18;;
28796;SDS011;24974;54.444;18.560;2022-07-03T00:47:52;7.38;;;5.20;;
28796;SDS011;24974;54.444;18.560;2022-07-03T00:50:30;9.10;;;5.85;;
28796;SDS011;24974;54.444;18.560;2022-07-03T00:53:05;8.82;;;5.45;;
28796;SDS011;24974;54.444;18.560;2022-07-03T00:55:39;10.52;;;5.45;;
28796;SDS011;24974;54.444;18.560;2022-07-03T00:58:15;9.20;;;5.93;;
28796;SDS011;24974;54.444;18.560;2022-07-03T01:00:47;8.63;;;6.75;;
28796;SDS011;24974;54.444;18.560;2022-07-03T01:03:21;12.90;;;6.65;;
28796;SDS011;24974;54.444;18.560;2022-07-03T01:05:59;8.75;;;6.45;;
28796;SDS011;24974;54.444;18.560;2022-07-03T01:08:41;13.07;;;6.90;;
28796;SDS011;24974;54.444;18.560;2022-07-03T01:11:20;13.20;;;7.15;;
28796;SDS011;24974;54.444;18.560;2022-07-03T01:17:04;10.30;;;6.60;;
28796;SDS011;24974;54.444;18.560;2022-07-03T01:19:41;10.85;;;6.20;;
28796;SDS011;24974;54.444;18.560;2022-07-03T01:30:28;17.23;;;6.78;;
28796;SDS011;24974;54.444;18.560;2022-07-03T01:33:06;11.80;;;6.13;;
28796;SDS011;24974;54.444;18.560;2022-07-03T01:35:39;8.95;;;6.00;;
28796;SDS011;24974;54.444;18.560;2022-07-03T01:38:12;13.35;;;6.18;;
28796;SDS011;24974;54.444;18.560;2022-07-03T01:40:44;10.25;;;6.15;;
28796;SDS011;24974;54.444;18.560;2022-07-03T01:43:15;11.25;;;6.03;;
28796;SDS011;24974;54.444;18.560;2022-07-03T01:45:49;11.73;;;6.50;;
28796;SDS011;24974;54.444;18.560;2022-07-03T01:48:20;9.05;;;6.15;;
28796;SDS011;24974;54.444;18.560;2022-07-03T01:50:54;14.68;;;7.13;;
28796;SDS011;24974;54.444;18.560;2022-07-03T01:53:27;12.65;;;6.90;;
28796;SDS011;24974;54.444;18.560;2022-07-03T01:56:01;12.90;;;7.13;;
28796;SDS011;24974;54.444;18.560;2022-07-03T01:58:33;12.82;;;6.75;;
28796;SDS011;24974;54.444;18.560;2022-07-03T02:04:16;12.18;;;7.00;;
28796;SDS011;24974;54.444;18.560;2022-07-03T02:10:07;13.93;;;7.40;;
28796;SDS011;24974;54.444;18.560;2022-07-03T02:12:40;11.45;;;7.35;;
28796;SDS011;24974;54.444;18.560;2022-07-03T02:15:33;15.75;;;7.78;;
28796;SDS011;24974;54.444;18.560;2022-07-03T02:18:27;11.30;;;6.93;;
28796;SDS011;24974;54.444;18.560;2022-07-03T02:26:33;12.63;;;8.05;;
28796;SDS011;24974;54.444;18.560;2022-07-03T02:29:08;16.80;;;7.38;;
28796;SDS011;24974;54.444;18.560;2022-07-03T02:31:46;11.23;;;7.10;;
28796;SDS011;24974;54.444;18.560;2022-07-03T02:34:30;10.60;;;7.15;;
28796;SDS011;24974;54.444;18.560;2022-07-03T02:37:15;11.43;;;6.70;;
28796;SDS011;24974;54.444;18.560;2022-07-03T02:39:52;12.32;;;6.70;;
28796;SDS011;24974;54.444;18.560;2022-07-03T02:48:29;12.43;;;5.72;;
28796;SDS011;24974;54.444;18.560;2022-07-03T02:51:09;13.20;;;5.78;;
28796;SDS011;24974;54.444;18.560;2022-07-03T02:53:53;9.48;;;5.78;;
28796;SDS011;24974;54.444;18.560;2022-07-03T02:56:38;13.18;;;5.32;;
28796;SDS011;24974;54.444;18.560;2022-07-03T03:02:17;12.63;;;5.38;;
28796;SDS011;24974;54.444;18.560;2022-07-03T03:07:59;8.13;;;4.63;;
28796;SDS011;24974;54.444;18.560;2022-07-03T03:10:36;10.68;;;4.80;;
28796;SDS011;24974;54.444;18.560;2022-07-03T03:13:08;8.77;;;4.20;;
28796;SDS011;24974;54.444;18.560;2022-07-03T03:15:44;8.90;;;4.43;;
28796;SDS011;24974;54.444;18.560;2022-07-03T03:18:28;12.10;;;4.60;;
28796;SDS011;24974;54.444;18.560;2022-07-03T03:21:03;8.88;;;4.25;;
28796;SDS011;24974;54.444;18.560;2022-07-03T03:26:20;7.18;;;3.85;;
28796;SDS011;24974;54.444;18.560;2022-07-03T03:28:55;6.60;;;4.13;;
28796;SDS011;24974;54.444;18.560;2022-07-03T03:31:26;7.97;;;3.80;;
28796;SDS011;24974;54.444;18.560;2022-07-03T03:33:57;5.18;;;3.65;;
28796;SDS011;24974;54.444;18.560;2022-07-03T03:36:29;12.52;;;4.18;;
28796;SDS011;24974;54.444;18.560;2022-07-03T03:39:02;9.35;;;4.18;;
28796;SDS011;24974;54.444;18.560;2022-07-03T03:41:33;6.95;;;3.33;;
28796;SDS011;24974;54.444;18.560;2022-07-03T03:44:04;5.78;;;3.75;;
28796;SDS011;24974;54.444;18.560;2022-07-03T03:46:35;8.35;;;3.70;;
28796;SDS011;24974;54.444;18.560;2022-07-03T03:49:06;6.75;;;4.00;;
28796;SDS011;24974;54.444;18.560;2022-07-03T03:51:37;12.93;;;4.30;;
28796;SDS011;24974;54.444;18.560;2022-07-03T03:54:09;6.57;;;3.70;;
28796;SDS011;24974;54.444;18.560;2022-07-03T03:56:40;8.00;;;3.60;;
28796;SDS011;24974;54.444;18.560;2022-07-03T03:59:11;5.95;;;3.95;;
28796;SDS011;24974;54.444;18.560;2022-07-03T04:01:42;6.85;;;3.88;;
28796;SDS011;24974;54.444;18.560;2022-07-03T04:04:14;5.03;;;3.33;;
28796;SDS011;24974;54.444;18.560;2022-07-03T04:06:47;7.55;;;3.85;;
28796;SDS011;24974;54.444;18.560;2022-07-03T04:09:20;8.38;;;4.50;;
28796;SDS011;24974;54.444;18.560;2022-07-03T04:11:51;7.15;;;4.30;;
28796;SDS011;24974;54.444;18.560;2022-07-03T04:14:22;8.40;;;4.32;;
28796;SDS011;24974;54.444;18.560;2022-07-03T04:16:53;7.15;;;3.80;;
28796;SDS011;24974;54.444;18.560;2022-07-03T04:19:24;8.80;;;3.92;;
28796;SDS011;24974;54.444;18.560;2022-07-03T04:21:55;9.57;;;4.70;;
28796;SDS011;24974;54.444;18.560;2022-07-03T04:24:26;8.32;;;5.45;;
28796;SDS011;24974;54.444;18.560;2022-07-03T04:26:57;10.75;;;4.95;;
28796;SDS011;24974;54.444;18.560;2022-07-03T04:29:28;9.40;;;4.75;;
28796;SDS011;24974;54.444;18.560;2022-07-03T04:31:59;6.78;;;4.13;;
28796;SDS011;24974;54.444;18.560;2022-07-03T04:34:30;7.93;;;3.80;;
28796;SDS011;24974;54.444;18.560;2022-07-03T04:37:01;10.00;;;3.80;;
28796;SDS011;24974;54.444;18.560;2022-07-03T04:39:32;9.20;;;3.72;;
28796;SDS011;24974;54.444;18.560;2022-07-03T04:42:03;7.57;;;3.63;;
28796;SDS011;24974;54.444;18.560;2022-07-03T04:44:35;7.63;;;3.70;;
28796;SDS011;24974;54.444;18.560;2022-07-03T04:47:06;5.13;;;3.50;;
28796;SDS011;24974;54.444;18.560;2022-07-03T04:49:37;6.45;;;3.50;;
28796;SDS011;24974;54.444;18.560;2022-07-03T04:52:08;9.90;;;3.58;;
28796;SDS011;24974;54.444;18.560;2022-07-03T04:54:39;7.50;;;3.15;;
28796;SDS011;24974;54.444;18.560;2022-07-03T04:57:10;7.72;;;3.65;;
28796;SDS011;24974;54.444;18.560;2022-07-03T04:59:41;6.68;;;2.90;;
28796;SDS011;24974;54.444;18.560;2022-07-03T05:02:12;7.60;;;3.00;;
28796;SDS011;24974;54.444;18.560;2022-07-03T05:04:43;6.00;;;3.15;;
28796;SDS011;24974;54.444;18.560;2022-07-03T05:07:13;7.00;;;3.42;;
28796;SDS011;24974;54.444;18.560;2022-07-03T05:09:44;11.38;;;3.40;;
28796;SDS011;24974;54.444;18.560;2022-07-03T05:12:15;6.80;;;3.58;;
28796;SDS011;24974;54.444;18.560;2022-07-03T05:14:46;9.13;;;3.47;;
28796;SDS011;24974;54.444;18.560;2022-07-03T05:17:17;5.15;;;2.80;;
28796;SDS011;24974;54.444;18.560;2022-07-03T05:19:48;8.65;;;3.20;;
28796;SDS011;24974;54.444;18.560;2022-07-03T05:22:39;6.75;;;2.95;;
28796;SDS011;24974;54.444;18.560;2022-07-03T05:25:10;7.22;;;3.10;;
28796;SDS011;24974;54.444;18.560;2022-07-03T05:27:41;6.60;;;2.92;;
28796;SDS011;24974;54.444;18.560;2022-07-03T05:30:12;5.57;;;2.88;;
28796;SDS011;24974;54.444;18.560;2022-07-03T05:32:43;8.18;;;3.55;;
28796;SDS011;24974;54.444;18.560;2022-07-03T05:35:14;6.95;;;3.05;;
28796;SDS011;24974;54.444;18.560;2022-07-03T05:37:45;6.68;;;2.97;;
28796;SDS011;24974;54.444;18.560;2022-07-03T05:40:16;4.50;;;2.75;;
28796;SDS011;24974;54.444;18.560;2022-07-03T05:42:47;6.95;;;2.80;;
28796;SDS011;24974;54.444;18.560;2022-07-03T05:45:18;6.22;;;2.95;;
28796;SDS011;24974;54.444;18.560;2022-07-03T05:47:49;5.68;;;2.60;;
28796;SDS011;24974;54.444;18.560;2022-07-03T05:50:20;7.97;;;2.90;;
28796;SDS011;24974;54.444;18.560;2022-07-03T05:52:51;8.50;;;2.90;;
28796;SDS011;24974;54.444;18.560;2022-07-03T05:55:22;6.72;;;2.65;;
28796;SDS011;24974;54.444;18.560;2022-07-03T05:57:53;3.60;;;2.53;;
28796;SDS011;24974;54.444;18.560;2022-07-03T06:00:23;4.53;;;2.13;;
28796;SDS011;24974;54.444;18.560;2022-07-03T06:02:55;3.97;;;2.00;;
28796;SDS011;24974;54.444;18.560;2022-07-03T06:05:26;7.30;;;2.60;;
28796;SDS011;24974;54.444;18.560;2022-07-03T06:07:57;5.82;;;2.47;;
28796;SDS011;24974;54.444;18.560;2022-07-03T06:10:29;5.13;;;2.80;;
28796;SDS011;24974;54.444;18.560;2022-07-03T06:13:00;4.07;;;2.17;;
28796;SDS011;24974;54.444;18.560;2022-07-03T06:15:31;8.38;;;2.20;;
28796;SDS011;24974;54.444;18.560;2022-07-03T06:18:01;5.22;;;2.00;;
28796;SDS011;24974;54.444;18.560;2022-07-03T06:20:32;3.92;;;2.35;;
28796;SDS011;24974;54.444;18.560;2022-07-03T06:23:03;4.65;;;1.90;;
28796;SDS011;24974;54.444;18.560;2022-07-03T06:25:34;2.97;;;1.70;;
28796;SDS011;24974;54.444;18.560;2022-07-03T06:28:05;3.30;;;1.85;;
28796;SDS011;24974;54.444;18.560;2022-07-03T06:30:36;5.85;;;2.10;;
28796;SDS011;24974;54.444;18.560;2022-07-03T06:33:07;5.97;;;2.25;;
28796;SDS011;24974;54.444;18.560;2022-07-03T06:35:37;6.13;;;1.80;;
28796;SDS011;24974;54.444;18.560;2022-07-03T06:38:08;3.28;;;1.75;;
28796;SDS011;24974;54.444;18.560;2022-07-03T06:40:39;5.00;;;1.70;;
28796;SDS011;24974;54.444;18.560;2022-07-03T06:43:10;3.30;;;1.77;;
28796;SDS011;24974;54.444;18.560;2022-07-03T06:45:41;3.97;;;1.95;;
28796;SDS011;24974;54.444;18.560;2022-07-03T06:48:11;4.93;;;2.00;;
28796;SDS011;24974;54.444;18.560;2022-07-03T06:50:42;4.45;;;2.03;;
28796;SDS011;24974;54.444;18.560;2022-07-03T06:53:13;5.75;;;1.85;;
28796;SDS011;24974;54.444;18.560;2022-07-03T06:55:44;6.38;;;2.17;;
28796;SDS011;24974;54.444;18.560;2022-07-03T06:58:15;5.82;;;1.88;;
28796;SDS011;24974;54.444;18.560;2022-07-03T07:00:45;6.65;;;1.92;;
28796;SDS011;24974;54.444;18.560;2022-07-03T07:03:16;5.10;;;2.17;;
28796;SDS011;24974;54.444;18.560;2022-07-03T07:05:47;4.90;;;2.00;;
28796;SDS011;24974;54.444;18.560;2022-07-03T07:08:18;4.97;;;2.03;;
28796;SDS011;24974;54.444;18.560;2022-07-03T07:10:48;3.90;;;2.13;;
28796;SDS011;24974;54.444;18.560;2022-07-03T07:13:19;3.33;;;2.10;;
28796;SDS011;24974;54.444;18.560;2022-07-03T07:15:50;6.75;;;2.60;;
28796;SDS011;24974;54.444;18.560;2022-07-03T07:18:21;5.38;;;2.20;;
28796;SDS011;24974;54.444;18.560;2022-07-03T07:20:52;8.48;;;2.35;;
28796;SDS011;24974;54.444;18.560;2022-07-03T07:23:23;4.30;;;2.40;;
28796;SDS011;24974;54.444;18.560;2022-07-03T07:25:54;4.45;;;2.05;;
28796;SDS011;24974;54.444;18.560;2022-07-03T07:28:24;3.95;;;2.33;;
28796;SDS011;24974;54.444;18.560;2022-07-03T07:30:55;5.28;;;2.10;;
28796;SDS011;24974;54.444;18.560;2022-07-03T07:33:28;5.25;;;2.38;;
28796;SDS011;24974;54.444;18.560;2022-07-03T07:35:58;4.80;;;2.45;;
28796;SDS011;24974;54.444;18.560;2022-07-03T07:38:29;4.75;;;2.10;;
28796;SDS011;24974;54.444;18.560;2022-07-03T07:41:00;3.90;;;2.35;;
28796;SDS011;24974;54.444;18.560;2022-07-03T07:43:31;9.02;;;2.63;;
28796;SDS011;24974;54.444;18.560;2022-07-03T07:46:02;3.35;;;1.70;;
28796;SDS011;24974;54.444;18.560;2022-07-03T07:48:36;5.22;;;2.08;;
28796;SDS011;24974;54.444;18.560;2022-07-03T07:51:07;4.65;;;2.50;;
28796;SDS011;24974;54.444;18.560;2022-07-03T07:53:38;7.07;;;2.20;;
28796;SDS011;24974;54.444;18.560;2022-07-03T07:56:09;2.00;;;1.60;;
28796;SDS011;24974;54.444;18.560;2022-07-03T07:58:40;5.30;;;2.30;;
28796;SDS011;24974;54.444;18.560;2022-07-03T08:01:11;14.82;;;8.57;;
28796;SDS011;24974;54.444;18.560;2022-07-03T08:04:00;5.18;;;2.65;;
28796;SDS011;24974;54.444;18.560;2022-07-03T08:06:50;7.97;;;2.63;;
28796;SDS011;24974;54.444;18.560;2022-07-03T08:09:21;5.35;;;3.35;;
28796;SDS011;24974;54.444;18.560;2022-07-03T08:11:51;10.50;;;2.90;;
28796;SDS011;24974;54.444;18.560;2022-07-03T08:14:22;4.90;;;2.50;;
28796;SDS011;24974;54.444;18.560;2022-07-03T08:16:53;5.70;;;2.20;;
28796;SDS011;24974;54.444;18.560;2022-07-03T08:19:24;7.35;;;2.30;;
28796;SDS011;24974;54.444;18.560;2022-07-03T08:21:55;10.27;;;4.95;;
28796;SDS011;24974;54.444;18.560;2022-07-03T08:24:26;3.25;;;2.15;;
28796;SDS011;24974;54.444;18.560;2022-07-03T08:26:58;4.93;;;2.40;;
28796;SDS011;24974;54.444;18.560;2022-07-03T08:29:29;6.72;;;2.28;;
28796;SDS011;24974;54.444;18.560;2022-07-03T08:31:59;5.70;;;2.25;;
28796;SDS011;24974;54.444;18.560;2022-07-03T08:34:30;6.60;;;2.45;;
28796;SDS011;24974;54.444;18.560;2022-07-03T08:37:01;5.35;;;2.30;;
28796;SDS011;24974;54.444;18.560;2022-07-03T08:39:32;6.18;;;2.28;;
28796;SDS011;24974;54.444;18.560;2022-07-03T08:42:04;6.28;;;2.20;;
28796;SDS011;24974;54.444;18.560;2022-07-03T08:44:35;4.78;;;2.30;;
28796;SDS011;24974;54.444;18.560;2022-07-03T08:47:08;5.45;;;2.38;;
28796;SDS011;24974;54.444;18.560;2022-07-03T08:49:43;4.20;;;2.25;;
28796;SDS011;24974;54.444;18.560;2022-07-03T08:52:14;5.05;;;2.10;;
28796;SDS011;24974;54.444;18.560;2022-07-03T08:54:45;6.65;;;2.30;;
28796;SDS011;24974;54.444;18.560;2022-07-03T08:57:16;8.13;;;2.30;;
28796;SDS011;24974;54.444;18.560;2022-07-03T08:59:52;6.03;;;2.47;;
28796;SDS011;24974;54.444;18.560;2022-07-03T09:02:24;4.32;;;2.15;;
28796;SDS011;24974;54.444;18.560;2022-07-03T09:04:57;4.75;;;2.10;;
28796;SDS011;24974;54.444;18.560;2022-07-03T09:07:34;4.30;;;1.60;;
28796;SDS011;24974;54.444;18.560;2022-07-03T09:10:07;3.38;;;2.35;;
28796;SDS011;24974;54.444;18.560;2022-07-03T09:12:39;6.25;;;4.47;;
28796;SDS011;24974;54.444;18.560;2022-07-03T09:15:12;6.47;;;3.90;;
28796;SDS011;24974;54.444;18.560;2022-07-03T09:20:44;7.05;;;3.38;;
28796;SDS011;24974;54.444;18.560;2022-07-03T09:23:16;6.47;;;3.53;;
28796;SDS011;24974;54.444;18.560;2022-07-03T09:31:15;17.73;;;5.47;;
28796;SDS011;24974;54.444;18.560;2022-07-03T09:34:05;11.63;;;4.00;;
28796;SDS011;24974;54.444;18.560;2022-07-03T09:42:02;7.97;;;3.67;;
28796;SDS011;24974;54.444;18.560;2022-07-03T09:44:36;16.08;;;8.90;;
28796;SDS011;24974;54.444;18.560;2022-07-03T09:47:21;19.10;;;10.75;;
28796;SDS011;24974;54.444;18.560;2022-07-03T10:00:21;10.40;;;6.70;;
28796;SDS011;24974;54.444;18.560;2022-07-03T10:02:54;10.23;;;6.32;;
28796;SDS011;24974;54.444;18.560;2022-07-03T10:05:31;9.18;;;6.03;;
28796;SDS011;24974;54.444;18.560;2022-07-03T10:08:10;9.03;;;5.30;;
28796;SDS011;24974;54.444;18.560;2022-07-03T10:10:48;10.20;;;5.15;;
28796;SDS011;24974;54.444;18.560;2022-07-03T10:13:19;7.38;;;5.38;;
28796;SDS011;24974;54.444;18.560;2022-07-03T10:15:51;8.50;;;4.68;;
28796;SDS011;24974;54.444;18.560;2022-07-03T10:18:23;7.60;;;5.13;;
28796;SDS011;24974;54.444;18.560;2022-07-03T10:21:01;7.03;;;4.10;;
28796;SDS011;24974;54.444;18.560;2022-07-03T10:23:35;7.63;;;3.75;;
28796;SDS011;24974;54.444;18.560;2022-07-03T10:26:07;6.57;;;3.45;;
28796;SDS011;24974;54.444;18.560;2022-07-03T10:28:39;6.78;;;4.38;;
28796;SDS011;24974;54.444;18.560;2022-07-03T10:31:11;7.85;;;6.45;;
28796;SDS011;24974;54.444;18.560;2022-07-03T10:33:43;9.88;;;8.52;;
28796;SDS011;24974;54.444;18.560;2022-07-03T10:36:15;11.93;;;8.35;;
28796;SDS011;24974;54.444;18.560;2022-07-03T10:38:48;11.02;;;7.85;;
28796;SDS011;24974;54.444;18.560;2022-07-03T10:41:23;8.88;;;7.60;;
28796;SDS011;24974;54.444;18.560;2022-07-03T10:44:17;9.03;;;6.73;;
28796;SDS011;24974;54.444;18.560;2022-07-03T10:47:09;7.03;;;6.18;;
28796;SDS011;24974;54.444;18.560;2022-07-03T10:52:51;7.63;;;5.65;;
28796;SDS011;24974;54.444;18.560;2022-07-03T10:55:22;7.47;;;5.28;;
28796;SDS011;24974;54.444;18.560;2022-07-03T10:58:06;9.88;;;5.22;;
28796;SDS011;24974;54.444;18.560;2022-07-03T11:07:14;4.93;;;3.70;;
28796;SDS011;24974;54.444;18.560;2022-07-03T11:09:21;5.53;;;3.80;;
28796;SDS011;24974;54.444;18.560;2022-07-03T11:11:53;4.57;;;3.50;;
28796;SDS011;24974;54.444;18.560;2022-07-03T11:14:30;3.95;;;3.20;;
28796;SDS011;24974;54.444;18.560;2022-07-03T11:17:20;5.35;;;3.33;;
28796;SDS011;24974;54.444;18.560;2022-07-03T11:19:52;3.50;;;2.25;;
28796;SDS011;24974;54.444;18.560;2022-07-03T11:22:46;3.42;;;2.78;;
28796;SDS011;24974;54.444;18.560;2022-07-03T11:25:26;3.03;;;2.47;;
28796;SDS011;24974;54.444;18.560;2022-07-03T11:38:47;4.97;;;4.00;;
28796;SDS011;24974;54.444;18.560;2022-07-03T11:41:51;4.18;;;3.63;;
28796;SDS011;24974;54.444;18.560;2022-07-03T11:44:22;7.82;;;3.97;;
28796;SDS011;24974;54.444;18.560;2022-07-03T11:46:53;4.63;;;3.50;;
28796;SDS011;24974;54.444;18.560;2022-07-03T11:49:26;5.50;;;3.38;;
28796;SDS011;24974;54.444;18.560;2022-07-03T11:51:58;4.53;;;3.28;;
28796;SDS011;24974;54.444;18.560;2022-07-03T11:54:32;5.28;;;3.05;;
28796;SDS011;24974;54.444;18.560;2022-07-03T11:57:19;4.63;;;3.13;;
28796;SDS011;24974;54.444;18.560;2022-07-03T11:59:51;4.47;;;3.00;;
28796;SDS011;24974;54.444;18.560;2022-07-03T12:02:48;5.15;;;3.10;;
28796;SDS011;24974;54.444;18.560;2022-07-03T12:05:20;3.17;;;2.55;;
28796;SDS011;24974;54.444;18.560;2022-07-03T12:08:09;3.97;;;2.60;;
28796;SDS011;24974;54.444;18.560;2022-07-03T12:10:40;5.55;;;2.53;;
28796;SDS011;24974;54.444;18.560;2022-07-03T12:13:18;3.75;;;2.47;;
28796;SDS011;24974;54.444;18.560;2022-07-03T12:15:50;3.83;;;2.40;;
28796;SDS011;24974;54.444;18.560;2022-07-03T12:18:20;4.50;;;2.00;;
28796;SDS011;24974;54.444;18.560;2022-07-03T12:20:52;2.58;;;1.70;;
28796;SDS011;24974;54.444;18.560;2022-07-03T12:23:23;5.32;;;2.13;;
28796;SDS011;24974;54.444;18.560;2022-07-03T12:25:54;3.35;;;2.10;;
28796;SDS011;24974;54.444;18.560;2022-07-03T12:28:25;2.13;;;1.70;;
28796;SDS011;24974;54.444;18.560;2022-07-03T12:30:56;2.50;;;1.63;;
28796;SDS011;24974;54.444;18.560;2022-07-03T12:33:27;3.03;;;1.80;;
28796;SDS011;24974;54.444;18.560;2022-07-03T12:36:08;5.47;;;1.98;;
28796;SDS011;24974;54.444;18.560;2022-07-03T12:38:39;2.17;;;1.63;;
28796;SDS011;24974;54.444;18.560;2022-07-03T12:41:11;1.92;;;1.60;;
28796;SDS011;24974;54.444;18.560;2022-07-03T12:43:42;2.15;;;1.63;;
28796;SDS011;24974;54.444;18.560;2022-07-03T12:48:53;3.33;;;1.58;;
28796;SDS011;24974;54.444;18.560;2022-07-03T13:02:48;2.47;;;1.20;;
28796;SDS011;24974;54.444;18.560;2022-07-03T13:05:20;2.13;;;1.20;;
28796;SDS011;24974;54.444;18.560;2022-07-03T13:07:52;2.58;;;1.38;;
28796;SDS011;24974;54.444;18.560;2022-07-03T13:10:24;2.75;;;1.40;;
28796;SDS011;24974;54.444;18.560;2022-07-03T13:12:55;2.38;;;1.33;;
28796;SDS011;24974;54.444;18.560;2022-07-03T13:15:28;3.40;;;1.30;;
28796;SDS011;24974;54.444;18.560;2022-07-03T13:18:00;3.58;;;1.30;;
28796;SDS011;24974;54.444;18.560;2022-07-03T13:20:32;7.80;;;1.60;;
28796;SDS011;24974;54.444;18.560;2022-07-03T13:23:04;2.20;;;1.35;;
28796;SDS011;24974;54.444;18.560;2022-07-03T13:25:37;1.88;;;1.48;;
28796;SDS011;24974;54.444;18.560;2022-07-03T13:28:13;3.63;;;1.50;;
28796;SDS011;24974;54.444;18.560;2022-07-03T13:30:44;4.60;;;1.58;;
28796;SDS011;24974;54.444;18.560;2022-07-03T13:33:15;2.72;;;1.13;;
28796;SDS011;24974;54.444;18.560;2022-07-03T13:35:46;2.08;;;1.20;;
28796;SDS011;24974;54.444;18.560;2022-07-03T13:38:17;1.60;;;1.20;;
28796;SDS011;24974;54.444;18.560;2022-07-03T13:40:48;2.70;;;1.10;;
28796;SDS011;24974;54.444;18.560;2022-07-03T13:43:19;3.90;;;1.38;;
28796;SDS011;24974;54.444;18.560;2022-07-03T13:45:49;4.07;;;1.10;;
28796;SDS011;24974;54.444;18.560;2022-07-03T13:48:20;4.18;;;1.70;;
28796;SDS011;24974;54.444;18.560;2022-07-03T13:50:51;5.38;;;1.40;;
28796;SDS011;24974;54.444;18.560;2022-07-03T13:53:22;3.70;;;1.10;;
28796;SDS011;24974;54.444;18.560;2022-07-03T13:55:56;2.95;;;1.10;;
28796;SDS011;24974;54.444;18.560;2022-07-03T13:58:28;3.53;;;1.10;;
28796;SDS011;24974;54.444;18.560;2022-07-03T14:00:59;4.90;;;2.08;;
28796;SDS011;24974;54.444;18.560;2022-07-03T14:03:31;4.07;;;2.67;;
28796;SDS011;24974;54.444;18.560;2022-07-03T14:06:02;6.40;;;3.40;;
28796;SDS011;24974;54.444;18.560;2022-07-03T14:08:34;5.00;;;2.53;;
28796;SDS011;24974;54.444;18.560;2022-07-03T14:11:05;5.35;;;3.90;;
28796;SDS011;24974;54.444;18.560;2022-07-03T14:13:36;6.22;;;3.50;;
28796;SDS011;24974;54.444;18.560;2022-07-03T14:16:07;5.65;;;3.33;;
28796;SDS011;24974;54.444;18.560;2022-07-03T14:18:38;6.72;;;3.70;;
28796;SDS011;24974;54.444;18.560;2022-07-03T14:21:09;7.03;;;2.90;;
28796;SDS011;24974;54.444;18.560;2022-07-03T14:23:40;5.13;;;3.20;;
28796;SDS011;24974;54.444;18.560;2022-07-03T14:26:11;5.03;;;2.67;;
28796;SDS011;24974;54.444;18.560;2022-07-03T14:28:42;4.68;;;3.67;;
28796;SDS011;24974;54.444;18.560;2022-07-03T14:31:31;5.78;;;4.00;;
28796;SDS011;24974;54.444;18.560;2022-07-03T14:34:20;3.95;;;3.55;;
28796;SDS011;24974;54.444;18.560;2022-07-03T14:36:51;5.60;;;3.83;;
28796;SDS011;24974;54.444;18.560;2022-07-03T14:39:22;3.90;;;3.50;;
28796;SDS011;24974;54.444;18.560;2022-07-03T14:41:53;5.40;;;3.15;;
28796;SDS011;24974;54.444;18.560;2022-07-03T14:44:23;5.55;;;3.13;;
28796;SDS011;24974;54.444;18.560;2022-07-03T14:46:56;4.80;;;3.58;;
28796;SDS011;24974;54.444;18.560;2022-07-03T14:49:27;5.13;;;3.30;;
28796;SDS011;24974;54.444;18.560;2022-07-03T14:52:01;5.57;;;3.33;;
28796;SDS011;24974;54.444;18.560;2022-07-03T14:54:34;4.78;;;3.30;;
28796;SDS011;24974;54.444;18.560;2022-07-03T15:05:34;3.33;;;2.33;;
28796;SDS011;24974;54.444;18.560;2022-07-03T15:11:03;4.07;;;2.38;;
28796;SDS011;24974;54.444;18.560;2022-07-03T15:13:37;4.03;;;2.42;;
28796;SDS011;24974;54.444;18.560;2022-07-03T15:16:08;3.05;;;2.20;;
28796;SDS011;24974;54.444;18.560;2022-07-03T15:18:40;2.78;;;2.08;;
28796;SDS011;24974;54.444;18.560;2022-07-03T15:21:11;3.20;;;1.90;;
28796;SDS011;24974;54.444;18.560;2022-07-03T15:23:42;4.68;;;2.47;;
28796;SDS011;24974;54.444;18.560;2022-07-03T15:26:13;2.97;;;1.80;;
28796;SDS011;24974;54.444;18.560;2022-07-03T15:28:45;3.70;;;2.00;;
28796;SDS011;24974;54.444;18.560;2022-07-03T15:31:17;2.25;;;1.73;;
28796;SDS011;24974;54.444;18.560;2022-07-03T15:33:48;3.15;;;1.88;;
28796;SDS011;24974;54.444;18.560;2022-07-03T15:36:19;3.80;;;1.65;;
28796;SDS011;24974;54.444;18.560;2022-07-03T15:39:03;3.25;;;2.10;;
28796;SDS011;24974;54.444;18.560;2022-07-03T15:41:44;4.28;;;1.85;;
28796;SDS011;24974;54.444;18.560;2022-07-03T15:44:29;2.28;;;1.70;;
28796;SDS011;24974;54.444;18.560;2022-07-03T15:47:19;4.45;;;1.77;;
28796;SDS011;24974;54.444;18.560;2022-07-03T15:49:53;4.43;;;1.92;;
28796;SDS011;24974;54.444;18.560;2022-07-03T15:52:29;2.88;;;2.10;;
28796;SDS011;24974;54.444;18.560;2022-07-03T15:57:53;5.28;;;2.30;;
28796;SDS011;24974;54.444;18.560;2022-07-03T16:00:28;3.45;;;2.47;;
28796;SDS011;24974;54.444;18.560;2022-07-03T16:06:04;3.58;;;2.75;;
28796;SDS011;24974;54.444;18.560;2022-07-03T16:08:36;3.03;;;2.45;;
28796;SDS011;24974;54.444;18.560;2022-07-03T16:11:13;3.25;;;2.40;;
28796;SDS011;24974;54.444;18.560;2022-07-03T16:13:46;4.70;;;2.47;;
28796;SDS011;24974;54.444;18.560;2022-07-03T16:16:23;4.25;;;2.35;;
28796;SDS011;24974;54.444;18.560;2022-07-03T16:18:55;3.63;;;1.98;;
28796;SDS011;24974;54.444;18.560;2022-07-03T16:21:30;3.15;;;2.00;;
28796;SDS011;24974;54.444;18.560;2022-07-03T16:24:01;3.78;;;2.20;;
28796;SDS011;24974;54.444;18.560;2022-07-03T16:26:35;3.38;;;2.25;;
28796;SDS011;24974;54.444;18.560;2022-07-03T16:29:07;4.32;;;2.15;;
28796;SDS011;24974;54.444;18.560;2022-07-03T16:31:40;4.55;;;2.15;;
28796;SDS011;24974;54.444;18.560;2022-07-03T16:34:15;2.67;;;1.95;;
28796;SDS011;24974;54.444;18.560;2022-07-03T16:36:56;3.47;;;1.73;;
28796;SDS011;24974;54.444;18.560;2022-07-03T16:39:35;4.47;;;2.15;;
28796;SDS011;24974;54.444;18.560;2022-07-03T16:42:09;3.45;;;2.20;;
28796;SDS011;24974;54.444;18.560;2022-07-03T16:44:42;3.33;;;2.00;;
28796;SDS011;24974;54.444;18.560;2022-07-03T16:47:15;2.80;;;1.80;;
28796;SDS011;24974;54.444;18.560;2022-07-03T16:49:47;3.55;;;1.92;;
28796;SDS011;24974;54.444;18.560;2022-07-03T16:52:18;5.32;;;1.83;;
28796;SDS011;24974;54.444;18.560;2022-07-03T16:54:53;2.70;;;1.60;;
28796;SDS011;24974;54.444;18.560;2022-07-03T16:57:25;2.35;;;1.65;;
28796;SDS011;24974;54.444;18.560;2022-07-03T16:59:57;2.20;;;1.52;;
28796;SDS011;24974;54.444;18.560;2022-07-03T17:02:29;3.05;;;1.80;;
28796;SDS011;24974;54.444;18.560;2022-07-03T17:05:00;2.60;;;2.08;;